Archival Weather

Snohomish County (Paine Fld)

Everett, Washington (KPAE)

Report from: Sunday, November 5, 2023 6:53 AM PST
Current time: Monday, June 24, 2024 2:27 AM PDT

Current weather – Weather history – Daily summaries
Weather forecast

Temperature11.1°C (52.0°F)
Dew point8.3°C (46.9°F)
Winds 10 kts (5.1 m/s, 11.5 mph) South-Southeast (150°)
Visibility10 mi. (16.1 km)
Clouds Ceiling: Broken clouds 6,500 ft. (1,981 m)
Broken clouds 8,000 ft. (2,438 m)
Altimeter29.85 in.Hg (1011 mB)
Precip last 3 hoursTrace
Relative humidity83 %
Density altitude-229 ft. (-70 m)
Sea-level pressure101.1 kPa (1011 mB, 29.85 in.Hg)
Remarks Automated weather observing station with precipitation discriminator
Pressure rising, then falling
Flight conditions Visual Meteorological Conditions
Raw dataKPAE 051453Z 15010KT 10SM BKN065 BKN080 11/08 A2985 RMK AO2 SLP109 60000 T01110083 50000
An error has occurred. This application may no longer respond until reloaded. Reload 🗙